sensor_id;sensor_type;location;lat;lon;timestamp;pressure;altitude;pressure_sealevel;temperature;humidity
42111;BME280;27766;52.174;5.456;2022-12-20T00:01:24;101185.66;;;8.52;100.00
42111;BME280;27766;52.174;5.456;2022-12-20T00:03:53;101169.38;;;8.53;100.00
42111;BME280;27766;52.174;5.456;2022-12-20T00:06:21;101168.66;;;8.57;100.00
42111;BME280;27766;52.174;5.456;2022-12-20T00:08:53;101165.09;;;8.53;100.00
42111;BME280;27766;52.174;5.456;2022-12-20T00:11:21;101156.47;;;8.53;100.00
42111;BME280;27766;52.174;5.456;2022-12-20T00:13:48;101153.88;;;8.53;100.00
42111;BME280;27766;52.174;5.456;2022-12-20T00:16:21;101166.75;;;8.51;100.00
42111;BME280;27766;52.174;5.456;2022-12-20T00:18:54;101172.72;;;8.50;100.00
42111;BME280;27766;52.174;5.456;2022-12-20T00:21:21;101166.78;;;8.53;100.00
42111;BME280;27766;52.174;5.456;2022-12-20T00:23:50;101178.16;;;8.58;100.00
42111;BME280;27766;52.174;5.456;2022-12-20T00:26:20;101178.19;;;8.60;100.00
42111;BME280;27766;52.174;5.456;2022-12-20T00:28:47;101158.22;;;8.54;100.00
42111;BME280;27766;52.174;5.456;2022-12-20T00:31:17;101162.03;;;8.65;100.00
42111;BME280;27766;52.174;5.456;2022-12-20T00:33:47;101157.06;;;8.71;100.00
42111;BME280;27766;52.174;5.456;2022-12-20T00:36:15;101160.63;;;8.77;100.00
42111;BME280;27766;52.174;5.456;2022-12-20T00:38:47;101144.69;;;8.90;100.00
42111;BME280;27766;52.174;5.456;2022-12-20T00:41:20;101151.63;;;8.93;100.00
42111;BME280;27766;52.174;5.456;2022-12-20T00:43:48;101144.09;;;8.99;100.00
42111;BME280;27766;52.174;5.456;2022-12-20T00:46:17;101150.91;;;8.97;100.00
42111;BME280;27766;52.174;5.456;2022-12-20T00:48:44;101149.16;;;8.96;100.00
42111;BME280;27766;52.174;5.456;2022-12-20T00:51:15;101137.22;;;8.99;100.00
42111;BME280;27766;52.174;5.456;2022-12-20T00:53:42;101139.94;;;9.04;100.00
42111;BME280;27766;52.174;5.456;2022-12-20T00:56:10;101152.03;;;9.05;100.00
42111;BME280;27766;52.174;5.456;2022-12-20T00:58:39;101164.00;;;9.03;100.00
42111;BME280;27766;52.174;5.456;2022-12-20T01:01:17;101162.25;;;9.02;100.00
42111;BME280;27766;52.174;5.456;2022-12-20T01:03:45;101146.75;;;9.02;100.00
42111;BME280;27766;52.174;5.456;2022-12-20T01:06:13;101148.63;;;9.06;100.00
42111;BME280;27766;52.174;5.456;2022-12-20T01:08:40;101146.06;;;9.08;100.00
42111;BME280;27766;52.174;5.456;2022-12-20T01:11:19;101159.72;;;9.03;100.00
42111;BME280;27766;52.174;5.456;2022-12-20T01:13:49;101159.66;;;9.02;100.00
42111;BME280;27766;52.174;5.456;2022-12-20T01:16:22;101150.22;;;9.02;100.00
42111;BME280;27766;52.174;5.456;2022-12-20T01:18:50;101145.88;;;9.01;100.00
42111;BME280;27766;52.174;5.456;2022-12-20T01:21:19;101153.53;;;8.98;100.00
42111;BME280;27766;52.174;5.456;2022-12-20T01:23:47;101144.75;;;8.92;100.00
42111;BME280;27766;52.174;5.456;2022-12-20T01:26:17;101149.25;;;8.99;100.00
42111;BME280;27766;52.174;5.456;2022-12-20T01:28:46;101143.16;;;8.97;100.00
42111;BME280;27766;52.174;5.456;2022-12-20T01:31:16;101149.03;;;8.91;100.00
42111;BME280;27766;52.174;5.456;2022-12-20T01:33:45;101151.72;;;8.94;100.00
42111;BME280;27766;52.174;5.456;2022-12-20T01:36:14;101149.06;;;8.93;100.00
42111;BME280;27766;52.174;5.456;2022-12-20T01:38:43;101151.38;;;8.83;100.00
42111;BME280;27766;52.174;5.456;2022-12-20T01:41:17;101142.53;;;8.75;100.00
42111;BME280;27766;52.174;5.456;2022-12-20T01:43:57;101132.91;;;8.69;100.00
42111;BME280;27766;52.174;5.456;2022-12-20T01:46:29;101137.91;;;8.65;100.00
42111;BME280;27766;52.174;5.456;2022-12-20T01:49:05;101144.59;;;8.58;100.00
42111;BME280;27766;52.174;5.456;2022-12-20T01:51:48;101134.97;;;8.52;100.00
42111;BME280;27766;52.174;5.456;2022-12-20T01:54:20;101127.22;;;8.52;100.00
42111;BME280;27766;52.174;5.456;2022-12-20T01:56:54;101128.69;;;8.46;100.00
42111;BME280;27766;52.174;5.456;2022-12-20T01:59:24;101118.91;;;8.35;100.00
42111;BME280;27766;52.174;5.456;2022-12-20T02:01:52;101127.66;;;8.39;100.00
42111;BME280;27766;52.174;5.456;2022-12-20T02:04:22;101129.19;;;8.34;100.00
42111;BME280;27766;52.174;5.456;2022-12-20T02:06:49;101120.50;;;8.32;100.00
42111;BME280;27766;52.174;5.456;2022-12-20T02:09:16;101110.19;;;8.32;100.00
42111;BME280;27766;52.174;5.456;2022-12-20T02:12:09;101121.25;;;8.28;100.00
42111;BME280;27766;52.174;5.456;2022-12-20T02:15:13;101111.75;;;8.27;100.00
42111;BME280;27766;52.174;5.456;2022-12-20T02:31:26;101086.66;;;8.21;100.00
42111;BME280;27766;52.174;5.456;2022-12-20T02:33:56;101085.59;;;8.14;100.00
42111;BME280;27766;52.174;5.456;2022-12-20T02:36:25;101090.13;;;8.21;100.00
42111;BME280;27766;52.174;5.456;2022-12-20T02:38:52;101096.09;;;8.20;100.00
42111;BME280;27766;52.174;5.456;2022-12-20T02:41:37;101100.28;;;8.17;100.00
42111;BME280;27766;52.174;5.456;2022-12-20T02:44:13;101089.16;;;8.18;100.00
42111;BME280;27766;52.174;5.456;2022-12-20T02:47:13;101085.75;;;8.19;100.00
42111;BME280;27766;52.174;5.456;2022-12-20T02:49:41;101074.38;;;8.14;100.00
42111;BME280;27766;52.174;5.456;2022-12-20T02:52:12;101083.22;;;8.20;100.00
42111;BME280;27766;52.174;5.456;2022-12-20T02:54:40;101061.34;;;8.09;100.00
42111;BME280;27766;52.174;5.456;2022-12-20T02:57:22;101072.84;;;8.19;100.00
42111;BME280;27766;52.174;5.456;2022-12-20T02:59:54;101080.81;;;8.27;100.00
42111;BME280;27766;52.174;5.456;2022-12-20T03:02:23;101072.09;;;8.23;100.00
42111;BME280;27766;52.174;5.456;2022-12-20T03:04:52;101060.97;;;8.24;100.00
42111;BME280;27766;52.174;5.456;2022-12-20T03:07:20;101056.44;;;8.17;100.00
42111;BME280;27766;52.174;5.456;2022-12-20T03:09:47;101079.06;;;8.26;100.00
42111;BME280;27766;52.174;5.456;2022-12-20T03:12:14;101062.47;;;8.17;100.00
42111;BME280;27766;52.174;5.456;2022-12-20T03:14:44;101049.56;;;8.17;100.00
42111;BME280;27766;52.174;5.456;2022-12-20T03:17:11;101060.19;;;8.27;100.00
42111;BME280;27766;52.174;5.456;2022-12-20T03:19:38;101066.22;;;8.27;100.00
42111;BME280;27766;52.174;5.456;2022-12-20T03:22:06;101074.88;;;8.29;100.00
42111;BME280;27766;52.174;5.456;2022-12-20T03:24:33;101079.06;;;8.26;100.00
42111;BME280;27766;52.174;5.456;2022-12-20T03:27:00;101077.31;;;8.24;100.00
42111;BME280;27766;52.174;5.456;2022-12-20T03:29:27;101058.38;;;8.24;100.00
42111;BME280;27766;52.174;5.456;2022-12-20T03:31:54;101067.09;;;8.28;100.00
42111;BME280;27766;52.174;5.456;2022-12-20T03:34:21;101077.53;;;8.31;100.00
42111;BME280;27766;52.174;5.456;2022-12-20T03:36:48;101057.53;;;8.23;100.00
42111;BME280;27766;52.174;5.456;2022-12-20T03:39:16;101065.44;;;8.30;100.00
42111;BME280;27766;52.174;5.456;2022-12-20T03:41:43;101068.19;;;8.34;100.00
42111;BME280;27766;52.174;5.456;2022-12-20T03:44:10;101064.53;;;8.28;100.00
42111;BME280;27766;52.174;5.456;2022-12-20T03:46:37;101069.97;;;8.37;100.00
42111;BME280;27766;52.174;5.456;2022-12-20T03:49:06;101050.25;;;8.39;100.00
42111;BME280;27766;52.174;5.456;2022-12-20T03:51:33;101042.31;;;8.33;100.00
42111;BME280;27766;52.174;5.456;2022-12-20T03:54:00;101062.22;;;8.37;100.00
42111;BME280;27766;52.174;5.456;2022-12-20T03:56:27;101053.03;;;8.45;100.00
42111;BME280;27766;52.174;5.456;2022-12-20T03:58:54;101051.38;;;8.47;100.00
42111;BME280;27766;52.174;5.456;2022-12-20T04:01:24;101050.44;;;8.45;100.00
42111;BME280;27766;52.174;5.456;2022-12-20T04:03:52;101036.66;;;8.45;100.00
42111;BME280;27766;52.174;5.456;2022-12-20T04:06:19;101027.22;;;8.45;100.00
42111;BME280;27766;52.174;5.456;2022-12-20T04:08:47;101039.50;;;8.52;100.00
42111;BME280;27766;52.174;5.456;2022-12-20T04:11:14;101026.59;;;8.52;100.00
42111;BME280;27766;52.174;5.456;2022-12-20T04:13:50;101017.94;;;8.50;100.00
42111;BME280;27766;52.174;5.456;2022-12-20T04:16:19;101023.13;;;8.52;100.00
42111;BME280;27766;52.174;5.456;2022-12-20T04:18:47;101027.56;;;8.56;100.00
42111;BME280;27766;52.174;5.456;2022-12-20T04:21:14;101036.13;;;8.55;100.00
42111;BME280;27766;52.174;5.456;2022-12-20T04:23:42;101020.66;;;8.55;100.00
42111;BME280;27766;52.174;5.456;2022-12-20T04:26:10;101022.44;;;8.58;100.00
42111;BME280;27766;52.174;5.456;2022-12-20T04:28:39;101006.19;;;8.60;100.00
42111;BME280;27766;52.174;5.456;2022-12-20T04:31:06;101014.97;;;8.67;100.00
42111;BME280;27766;52.174;5.456;2022-12-20T04:33:34;101010.03;;;8.75;100.00
42111;BME280;27766;52.174;5.456;2022-12-20T04:36:04;101002.28;;;8.75;100.00
42111;BME280;27766;52.174;5.456;2022-12-20T04:38:31;101003.16;;;8.75;100.00
42111;BME280;27766;52.174;5.456;2022-12-20T04:40:59;101005.78;;;8.77;100.00
42111;BME280;27766;52.174;5.456;2022-12-20T04:43:26;101006.69;;;8.77;100.00
42111;BME280;27766;52.174;5.456;2022-12-20T04:45:54;101007.50;;;8.76;100.00
42111;BME280;27766;52.174;5.456;2022-12-20T04:48:25;101001.59;;;8.80;100.00
42111;BME280;27766;52.174;5.456;2022-12-20T04:51:13;101007.66;;;8.82;100.00
42111;BME280;27766;52.174;5.456;2022-12-20T04:53:41;101005.94;;;8.83;100.00
42111;BME280;27766;52.174;5.456;2022-12-20T04:56:27;101011.38;;;8.92;100.00
42111;BME280;27766;52.174;5.456;2022-12-20T04:58:56;101014.19;;;9.00;100.00
42111;BME280;27766;52.174;5.456;2022-12-20T05:01:24;101011.69;;;9.05;100.00
42111;BME280;27766;52.174;5.456;2022-12-20T05:03:51;101004.91;;;9.08;100.00
42111;BME280;27766;52.174;5.456;2022-12-20T05:06:19;101001.38;;;9.05;100.00
42111;BME280;27766;52.174;5.456;2022-12-20T05:08:46;101004.00;;;9.06;100.00
42111;BME280;27766;52.174;5.456;2022-12-20T05:11:14;101001.34;;;9.03;100.00
42111;BME280;27766;52.174;5.456;2022-12-20T05:13:41;100998.69;;;9.00;100.00
42111;BME280;27766;52.174;5.456;2022-12-20T05:16:08;100995.25;;;9.01;100.00
42111;BME280;27766;52.174;5.456;2022-12-20T05:18:35;101001.16;;;8.95;100.00
42111;BME280;27766;52.174;5.456;2022-12-20T05:21:08;100994.84;;;8.85;100.00
42111;BME280;27766;52.174;5.456;2022-12-20T05:23:55;100982.84;;;8.87;100.00
42111;BME280;27766;52.174;5.456;2022-12-20T05:26:41;100980.13;;;8.83;100.00
42111;BME280;27766;52.174;5.456;2022-12-20T05:29:08;100981.03;;;8.83;100.00
42111;BME280;27766;52.174;5.456;2022-12-20T05:31:35;100986.03;;;8.77;100.00
42111;BME280;27766;52.174;5.456;2022-12-20T05:34:03;100973.31;;;8.85;100.00
42111;BME280;27766;52.174;5.456;2022-12-20T05:36:30;100965.44;;;8.80;100.00
42111;BME280;27766;52.174;5.456;2022-12-20T05:38:57;100969.03;;;8.85;100.00
42111;BME280;27766;52.174;5.456;2022-12-20T05:41:30;100962.13;;;8.84;100.00
42111;BME280;27766;52.174;5.456;2022-12-20T05:43:58;100957.94;;;8.88;100.00
42111;BME280;27766;52.174;5.456;2022-12-20T05:46:25;100956.34;;;8.93;100.00
42111;BME280;27766;52.174;5.456;2022-12-20T05:48:52;100959.59;;;8.86;100.00
42111;BME280;27766;52.174;5.456;2022-12-20T05:51:19;100932.69;;;8.78;100.00
42111;BME280;27766;52.174;5.456;2022-12-20T05:53:47;100953.63;;;8.89;100.00
42111;BME280;27766;52.174;5.456;2022-12-20T05:56:14;100941.66;;;8.91;100.00
42111;BME280;27766;52.174;5.456;2022-12-20T05:58:41;100943.47;;;8.95;100.00
42111;BME280;27766;52.174;5.456;2022-12-20T06:01:08;100927.13;;;8.94;100.00
42111;BME280;27766;52.174;5.456;2022-12-20T06:03:38;100928.09;;;8.99;100.00
42111;BME280;27766;52.174;5.456;2022-12-20T06:06:06;100925.38;;;8.95;100.00
42111;BME280;27766;52.174;5.456;2022-12-20T06:08:41;100908.00;;;8.87;100.00
42111;BME280;27766;52.174;5.456;2022-12-20T06:11:08;100916.84;;;8.97;100.00
42111;BME280;27766;52.174;5.456;2022-12-20T06:13:36;100903.06;;;8.97;100.00
42111;BME280;27766;52.174;5.456;2022-12-20T06:16:03;100897.09;;;8.98;100.00
42111;BME280;27766;52.174;5.456;2022-12-20T06:18:30;100910.00;;;8.98;100.00
42111;BME280;27766;52.174;5.456;2022-12-20T06:20:58;100913.56;;;9.03;100.00
42111;BME280;27766;52.174;5.456;2022-12-20T06:23:25;100899.16;;;9.13;100.00
42111;BME280;27766;52.174;5.456;2022-12-20T06:25:52;100913.81;;;9.14;100.00
42111;BME280;27766;52.174;5.456;2022-12-20T06:28:20;100912.03;;;9.11;100.00
42111;BME280;27766;52.174;5.456;2022-12-20T06:30:54;100926.88;;;9.20;100.00
42111;BME280;27766;52.174;5.456;2022-12-20T06:33:21;100912.34;;;9.24;100.00
42111;BME280;27766;52.174;5.456;2022-12-20T06:35:49;100921.09;;;9.29;100.00
42111;BME280;27766;52.174;5.456;2022-12-20T06:38:17;100916.78;;;9.29;100.00
42111;BME280;27766;52.174;5.456;2022-12-20T06:40:45;100918.66;;;9.35;100.00
42111;BME280;27766;52.174;5.456;2022-12-20T06:43:13;100924.88;;;9.43;100.00
42111;BME280;27766;52.174;5.456;2022-12-20T06:45:40;100920.63;;;9.45;100.00
42111;BME280;27766;52.174;5.456;2022-12-20T06:48:09;100913.50;;;9.37;100.00
42111;BME280;27766;52.174;5.456;2022-12-20T06:50:38;100925.00;;;9.48;100.00
42111;BME280;27766;52.174;5.456;2022-12-20T06:53:06;100912.88;;;9.45;100.00
42111;BME280;27766;52.174;5.456;2022-12-20T06:55:33;100923.22;;;9.45;100.00
42111;BME280;27766;52.174;5.456;2022-12-20T06:58:02;100925.72;;;9.42;100.00
42111;BME280;27766;52.174;5.456;2022-12-20T07:00:30;100902.06;;;9.25;100.00
42111;BME280;27766;52.174;5.456;2022-12-20T07:02:58;100928.91;;;9.32;100.00
42111;BME280;27766;52.174;5.456;2022-12-20T07:05:25;100901.97;;;9.22;100.00
42111;BME280;27766;52.174;5.456;2022-12-20T07:07:53;100917.78;;;9.34;100.00
42111;BME280;27766;52.174;5.456;2022-12-20T07:10:20;100919.56;;;9.37;100.00
42111;BME280;27766;52.174;5.456;2022-12-20T07:12:47;100921.34;;;9.40;100.00
42111;BME280;27766;52.174;5.456;2022-12-20T07:15:15;100926.53;;;9.41;100.00
42111;BME280;27766;52.174;5.456;2022-12-20T07:17:43;100914.53;;;9.43;100.00
42111;BME280;27766;52.174;5.456;2022-12-20T07:20:10;100912.94;;;9.48;100.00
42111;BME280;27766;52.174;5.456;2022-12-20T07:22:40;100918.94;;;9.47;100.00
42111;BME280;27766;52.174;5.456;2022-12-20T07:25:08;100933.66;;;9.50;100.00
42111;BME280;27766;52.174;5.456;2022-12-20T07:27:35;100917.28;;;9.49;100.00
42111;BME280;27766;52.174;5.456;2022-12-20T07:30:04;100903.59;;;9.54;100.00
42111;BME280;27766;52.174;5.456;2022-12-20T07:32:33;100918.22;;;9.53;100.00
42111;BME280;27766;52.174;5.456;2022-12-20T07:35:00;100919.28;;;9.61;100.00
42111;BME280;27766;52.174;5.456;2022-12-20T07:37:28;100907.03;;;9.53;100.00
42111;BME280;27766;52.174;5.456;2022-12-20T07:39:55;100915.88;;;9.64;100.00
42111;BME280;27766;52.174;5.456;2022-12-20T07:42:23;100924.53;;;9.64;100.00
42111;BME280;27766;52.174;5.456;2022-12-20T07:45:01;100915.81;;;9.61;100.00
42111;BME280;27766;52.174;5.456;2022-12-20T07:47:29;100917.63;;;9.65;100.00
42111;BME280;27766;52.174;5.456;2022-12-20T07:49:56;100930.56;;;9.65;100.00
42111;BME280;27766;52.174;5.456;2022-12-20T07:52:24;100921.88;;;9.63;100.00
42111;BME280;27766;52.174;5.456;2022-12-20T07:54:57;100930.56;;;9.66;100.00
42111;BME280;27766;52.174;5.456;2022-12-20T07:57:31;100936.56;;;9.64;100.00
42111;BME280;27766;52.174;5.456;2022-12-20T08:00:02;100936.41;;;9.58;100.00
42111;BME280;27766;52.174;5.456;2022-12-20T08:02:55;100937.84;;;9.46;100.00
42111;BME280;27766;52.174;5.456;2022-12-20T08:05:27;100942.97;;;9.43;100.00
42111;BME280;27766;52.174;5.456;2022-12-20T08:07:57;100935.81;;;9.33;100.00
42111;BME280;27766;52.174;5.456;2022-12-20T08:10:26;100929.81;;;9.34;100.00
42111;BME280;27766;52.174;5.456;2022-12-20T08:12:54;100939.41;;;9.38;100.00
42111;BME280;27766;52.174;5.456;2022-12-20T08:15:22;100937.59;;;9.35;100.00
42111;BME280;27766;52.174;5.456;2022-12-20T08:17:49;100934.28;;;9.41;100.00
42111;BME280;27766;52.174;5.456;2022-12-20T08:20:17;100924.78;;;9.40;100.00
42111;BME280;27766;52.174;5.456;2022-12-20T08:22:44;100931.81;;;9.44;100.00
42111;BME280;27766;52.174;5.456;2022-12-20T08:25:11;100911.72;;;9.34;100.00
42111;BME280;27766;52.174;5.456;2022-12-20T08:27:38;100923.09;;;9.41;100.00
42111;BME280;27766;52.174;5.456;2022-12-20T08:30:06;100925.72;;;9.42;100.00
42111;BME280;27766;52.174;5.456;2022-12-20T08:32:36;100934.50;;;9.49;100.00
42111;BME280;27766;52.174;5.456;2022-12-20T08:35:04;100911.13;;;9.44;100.00
42111;BME280;27766;52.174;5.456;2022-12-20T08:37:32;100925.72;;;9.42;100.00
42111;BME280;27766;52.174;5.456;2022-12-20T08:40:00;100925.72;;;9.42;100.00
42111;BME280;27766;52.174;5.456;2022-12-20T08:42:27;100921.34;;;9.40;100.00
42111;BME280;27766;52.174;5.456;2022-12-20T08:44:55;100922.97;;;9.34;100.00
42111;BME280;27766;52.174;5.456;2022-12-20T08:47:22;100930.06;;;9.45;100.00
42111;BME280;27766;52.174;5.456;2022-12-20T08:49:49;100926.66;;;9.46;100.00
42111;BME280;27766;52.174;5.456;2022-12-20T08:52:16;100932.63;;;9.43;100.00
42111;BME280;27766;52.174;5.456;2022-12-20T08:54:43;100927.38;;;9.40;100.00
42111;BME280;27766;52.174;5.456;2022-12-20T08:57:11;100915.28;;;9.39;100.00
42111;BME280;27766;52.174;5.456;2022-12-20T08:59:40;100923.13;;;9.42;100.00
42111;BME280;27766;52.174;5.456;2022-12-20T09:02:07;100909.97;;;9.33;100.00
42111;BME280;27766;52.174;5.456;2022-12-20T09:04:35;100936.75;;;9.37;100.00
42111;BME280;27766;52.174;5.456;2022-12-20T09:07:03;100927.19;;;9.31;100.00
42111;BME280;27766;52.174;5.456;2022-12-20T09:09:32;100933.06;;;9.25;100.00
42111;BME280;27766;52.174;5.456;2022-12-20T09:11:59;100924.09;;;9.11;100.00
42111;BME280;27766;52.174;5.456;2022-12-20T09:14:26;100903.31;;;9.06;100.00
42111;BME280;27766;52.174;5.456;2022-12-20T09:16:53;100922.22;;;9.05;100.00
42111;BME280;27766;52.174;5.456;2022-12-20T09:19:21;100924.88;;;9.08;100.00
42111;BME280;27766;52.174;5.456;2022-12-20T09:21:48;100920.50;;;9.06;100.00
42111;BME280;27766;52.174;5.456;2022-12-20T09:24:15;100924.88;;;9.08;100.00
42111;BME280;27766;52.174;5.456;2022-12-20T09:26:43;100930.81;;;9.06;100.00
42111;BME280;27766;52.174;5.456;2022-12-20T09:29:15;100926.44;;;9.01;100.00
42111;BME280;27766;52.174;5.456;2022-12-20T09:31:51;100917.97;;;9.07;100.00
42111;BME280;27766;52.174;5.456;2022-12-20T09:34:19;100902.38;;;9.02;100.00
42111;BME280;27766;52.174;5.456;2022-12-20T09:36:46;100920.38;;;9.01;100.00
42111;BME280;27766;52.174;5.456;2022-12-20T09:39:13;100913.56;;;9.03;100.00
42111;BME280;27766;52.174;5.456;2022-12-20T09:41:41;100920.16;;;8.92;100.00
42111;BME280;27766;52.174;5.456;2022-12-20T09:44:33;100924.59;;;8.97;100.00
42111;BME280;27766;52.174;5.456;2022-12-20T09:47:12;100919.44;;;8.97;100.00
42111;BME280;27766;52.174;5.456;2022-12-20T09:49:44;100933.38;;;9.04;100.00
42111;BME280;27766;52.174;5.456;2022-12-20T09:52:43;100936.72;;;9.00;100.00
42111;BME280;27766;52.174;5.456;2022-12-20T10:00:43;100930.38;;;8.87;100.00
42111;BME280;27766;52.174;5.456;2022-12-20T10:03:22;100936.38;;;8.87;100.00
42111;BME280;27766;52.174;5.456;2022-12-20T10:05:53;100932.00;;;8.83;100.00
42111;BME280;27766;52.174;5.456;2022-12-20T10:11:14;100937.88;;;8.79;100.00
42111;BME280;27766;52.174;5.456;2022-12-20T10:19:00;100926.00;;;8.84;100.00
42111;BME280;27766;52.174;5.456;2022-12-20T10:21:49;100913.97;;;8.86;100.00
42111;BME280;27766;52.174;5.456;2022-12-20T10:24:28;100910.53;;;8.86;100.00
42111;BME280;27766;52.174;5.456;2022-12-20T10:27:14;100917.34;;;8.82;100.00
42111;BME280;27766;52.174;5.456;2022-12-20T10:29:42;100914.75;;;8.82;100.00
42111;BME280;27766;52.174;5.456;2022-12-20T10:32:16;100917.34;;;8.82;100.00
42111;BME280;27766;52.174;5.456;2022-12-20T10:37:36;100912.19;;;8.84;100.00
42111;BME280;27766;52.174;5.456;2022-12-20T10:40:25;100912.06;;;8.79;100.00
42111;BME280;27766;52.174;5.456;2022-12-20T10:43:19;100909.63;;;8.84;100.00
42111;BME280;27766;52.174;5.456;2022-12-20T10:45:59;100899.13;;;8.76;100.00
42111;BME280;27766;52.174;5.456;2022-12-20T10:48:30;100903.75;;;8.90;100.00
42111;BME280;27766;52.174;5.456;2022-12-20T10:56:26;100900.19;;;8.84;100.00
42111;BME280;27766;52.174;5.456;2022-12-20T11:01:23;100894.28;;;8.90;100.00
42111;BME280;27766;52.174;5.456;2022-12-20T11:07:30;100885.03;;;8.98;100.00
42111;BME280;27766;52.174;5.456;2022-12-20T11:10:16;100874.53;;;8.91;100.00
42111;BME280;27766;52.174;5.456;2022-12-20T11:12:54;100883.41;;;9.02;100.00
42111;BME280;27766;52.174;5.456;2022-12-20T11:15:25;100880.69;;;8.97;100.00
42111;BME280;27766;52.174;5.456;2022-12-20T11:18:22;100885.09;;;9.00;100.00
42111;BME280;27766;52.174;5.456;2022-12-20T11:21:09;100877.44;;;9.05;100.00
42111;BME280;27766;52.174;5.456;2022-12-20T11:29:13;100879.06;;;9.01;100.00
42111;BME280;27766;52.174;5.456;2022-12-20T11:56:10;100842.16;;;9.03;100.00
42111;BME280;27766;52.174;5.456;2022-12-20T11:58:56;100870.59;;;9.05;100.00
42111;BME280;27766;52.174;5.456;2022-12-20T12:01:32;100848.78;;;8.94;100.00
42111;BME280;27766;52.174;5.456;2022-12-20T12:04:21;100849.09;;;9.06;100.00
42111;BME280;27766;52.174;5.456;2022-12-20T12:07:00;100848.97;;;9.01;100.00
42111;BME280;27766;52.174;5.456;2022-12-20T12:09:36;100856.00;;;9.07;100.00
42111;BME280;27766;52.174;5.456;2022-12-20T12:12:25;100860.25;;;9.05;100.00
42111;BME280;27766;52.174;5.456;2022-12-20T12:17:51;100855.22;;;9.10;100.00
42111;BME280;27766;52.174;5.456;2022-12-20T12:26:27;100833.53;;;9.05;100.00
42111;BME280;27766;52.174;5.456;2022-12-20T12:28:58;100833.59;;;9.06;100.00
42111;BME280;27766;52.174;5.456;2022-12-20T12:31:35;100825.97;;;9.11;100.00
42111;BME280;27766;52.174;5.456;2022-12-20T12:34:38;100842.25;;;9.08;100.00
42111;BME280;27766;52.174;5.456;2022-12-20T12:45:24;100843.16;;;9.10;100.00
42111;BME280;27766;52.174;5.456;2022-12-20T12:47:55;100839.00;;;9.15;100.00
42111;BME280;27766;52.174;5.456;2022-12-20T12:50:26;100847.50;;;9.11;100.00
42111;BME280;27766;52.174;5.456;2022-12-20T12:52:56;100841.34;;;9.06;100.00
42111;BME280;27766;52.174;5.456;2022-12-20T12:55:46;100846.50;;;9.06;100.00
42111;BME280;27766;52.174;5.456;2022-12-20T12:58:29;100850.84;;;9.07;100.00
42111;BME280;27766;52.174;5.456;2022-12-20T13:11:34;100847.41;;;9.08;100.00
42111;BME280;27766;52.174;5.456;2022-12-20T13:19:50;100841.47;;;9.11;100.00
42111;BME280;27766;52.174;5.456;2022-12-20T13:22:25;100835.41;;;9.10;100.00
42111;BME280;27766;52.174;5.456;2022-12-20T13:27:40;100828.44;;;9.06;100.00
42111;BME280;27766;52.174;5.456;2022-12-20T13:38:37;100841.47;;;9.11;100.00
42111;BME280;27766;52.174;5.456;2022-12-20T13:47:11;100841.38;;;9.08;100.00
42111;BME280;27766;52.174;5.456;2022-12-20T13:49:42;100833.50;;;9.03;100.00
42111;BME280;27766;52.174;5.456;2022-12-20T13:54:45;100829.31;;;9.07;100.00
42111;BME280;27766;52.174;5.456;2022-12-20T13:57:17;100835.28;;;9.06;100.00
42111;BME280;27766;52.174;5.456;2022-12-20T13:59:47;100831.81;;;9.03;100.00
42111;BME280;27766;52.174;5.456;2022-12-20T14:02:23;100830.09;;;9.04;100.00
42111;BME280;27766;52.174;5.456;2022-12-20T14:05:03;100836.13;;;9.05;100.00
42111;BME280;27766;52.174;5.456;2022-12-20T14:07:32;100837.03;;;9.07;100.00
42111;BME280;27766;52.174;5.456;2022-12-20T14:10:03;100840.47;;;9.06;100.00
42111;BME280;27766;52.174;5.456;2022-12-20T14:12:32;100839.66;;;9.08;100.00
42111;BME280;27766;52.174;5.456;2022-12-20T14:15:20;100827.53;;;9.04;100.00
42111;BME280;27766;52.174;5.456;2022-12-20T14:17:48;100833.63;;;9.08;100.00
42111;BME280;27766;52.174;5.456;2022-12-20T14:20:18;100834.47;;;9.07;100.00
42111;BME280;27766;52.174;5.456;2022-12-20T14:25:40;100839.63;;;9.07;100.00
42111;BME280;27766;52.174;5.456;2022-12-20T14:28:30;100820.63;;;9.05;100.00
42111;BME280;27766;52.174;5.456;2022-12-20T14:30:59;100834.50;;;9.08;100.00
42111;BME280;27766;52.174;5.456;2022-12-20T14:33:40;100843.09;;;9.07;100.00
42111;BME280;27766;52.174;5.456;2022-12-20T14:38:49;100844.75;;;9.05;100.00
42111;BME280;27766;52.174;5.456;2022-12-20T14:41:37;100853.38;;;9.06;100.00
42111;BME280;27766;52.174;5.456;2022-12-20T14:46:34;100850.78;;;9.06;100.00
42111;BME280;27766;52.174;5.456;2022-12-20T14:51:42;100836.13;;;9.05;100.00
42111;BME280;27766;52.174;5.456;2022-12-20T14:54:20;100831.81;;;9.03;100.00
42111;BME280;27766;52.174;5.456;2022-12-20T14:57:22;100822.28;;;9.01;100.00
42111;BME280;27766;52.174;5.456;2022-12-20T15:02:47;100803.31;;;8.99;100.00
42111;BME280;27766;52.174;5.456;2022-12-20T15:05:42;100805.00;;;8.98;100.00
42111;BME280;27766;52.174;5.456;2022-12-20T15:08:15;100811.06;;;8.99;100.00
42111;BME280;27766;52.174;5.456;2022-12-20T15:13:38;100817.03;;;8.96;100.00
42111;BME280;27766;52.174;5.456;2022-12-20T15:16:19;100816.16;;;8.97;100.00
42111;BME280;27766;52.174;5.456;2022-12-20T15:18:47;100811.88;;;8.96;100.00
42111;BME280;27766;52.174;5.456;2022-12-20T15:21:23;100820.44;;;8.95;100.00
42111;BME280;27766;52.174;5.456;2022-12-20T15:23:55;100819.50;;;8.92;100.00
42111;BME280;27766;52.174;5.456;2022-12-20T15:26:25;100827.25;;;8.93;100.00
42111;BME280;27766;52.174;5.456;2022-12-20T15:28:53;100822.97;;;8.94;100.00
42111;BME280;27766;52.174;5.456;2022-12-20T15:31:22;100828.91;;;8.90;100.00
42111;BME280;27766;52.174;5.456;2022-12-20T15:34:03;100821.19;;;8.91;100.00